sensor_id;sensor_type;location;lat;lon;timestamp;P1;durP1;ratioP1;P2;durP2;ratioP2
17921;SDS011;9086;50.966;3.144;2023-07-20T00:01:14;12.65;;;6.03;;
17921;SDS011;9086;50.966;3.144;2023-07-20T00:03:40;8.45;;;4.93;;
17921;SDS011;9086;50.966;3.144;2023-07-20T00:06:06;7.70;;;4.80;;
17921;SDS011;9086;50.966;3.144;2023-07-20T00:08:32;11.15;;;6.20;;
17921;SDS011;9086;50.966;3.144;2023-07-20T00:10:58;12.23;;;5.35;;
17921;SDS011;9086;50.966;3.144;2023-07-20T00:13:24;10.45;;;5.80;;
17921;SDS011;9086;50.966;3.144;2023-07-20T00:15:51;12.57;;;6.15;;
17921;SDS011;9086;50.966;3.144;2023-07-20T00:18:17;10.07;;;5.95;;
17921;SDS011;9086;50.966;3.144;2023-07-20T00:20:46;13.55;;;6.35;;
17921;SDS011;9086;50.966;3.144;2023-07-20T00:23:12;10.73;;;6.10;;
17921;SDS011;9086;50.966;3.144;2023-07-20T00:25:38;12.10;;;5.75;;
17921;SDS011;9086;50.966;3.144;2023-07-20T00:28:04;7.90;;;5.40;;
17921;SDS011;9086;50.966;3.144;2023-07-20T00:30:30;9.32;;;5.38;;
17921;SDS011;9086;50.966;3.144;2023-07-20T00:32:56;11.02;;;6.05;;
17921;SDS011;9086;50.966;3.144;2023-07-20T00:35:22;11.60;;;6.28;;
17921;SDS011;9086;50.966;3.144;2023-07-20T00:37:48;12.85;;;6.07;;
17921;SDS011;9086;50.966;3.144;2023-07-20T00:40:14;11.30;;;6.55;;
17921;SDS011;9086;50.966;3.144;2023-07-20T00:42:40;11.90;;;6.68;;
17921;SDS011;9086;50.966;3.144;2023-07-20T00:45:06;11.30;;;6.20;;
17921;SDS011;9086;50.966;3.144;2023-07-20T00:47:32;12.73;;;6.38;;
17921;SDS011;9086;50.966;3.144;2023-07-20T00:49:58;13.13;;;6.15;;
17921;SDS011;9086;50.966;3.144;2023-07-20T00:52:24;8.20;;;6.15;;
17921;SDS011;9086;50.966;3.144;2023-07-20T00:54:51;10.83;;;6.53;;
17921;SDS011;9086;50.966;3.144;2023-07-20T00:57:21;10.37;;;6.80;;
17921;SDS011;9086;50.966;3.144;2023-07-20T00:59:47;11.38;;;7.07;;
17921;SDS011;9086;50.966;3.144;2023-07-20T01:02:14;10.68;;;6.63;;
17921;SDS011;9086;50.966;3.144;2023-07-20T01:04:40;11.90;;;5.97;;
17921;SDS011;9086;50.966;3.144;2023-07-20T01:09:34;11.55;;;6.70;;
17921;SDS011;9086;50.966;3.144;2023-07-20T01:12:07;9.53;;;6.57;;
17921;SDS011;9086;50.966;3.144;2023-07-20T01:14:34;9.83;;;6.27;;
17921;SDS011;9086;50.966;3.144;2023-07-20T01:17:01;9.13;;;5.75;;
17921;SDS011;9086;50.966;3.144;2023-07-20T01:19:27;12.30;;;6.20;;
17921;SDS011;9086;50.966;3.144;2023-07-20T01:32:20;9.57;;;6.80;;
17921;SDS011;9086;50.966;3.144;2023-07-20T01:34:49;7.40;;;6.20;;
17921;SDS011;9086;50.966;3.144;2023-07-20T01:37:17;9.43;;;6.07;;
17921;SDS011;9086;50.966;3.144;2023-07-20T01:39:45;11.27;;;6.47;;
17921;SDS011;9086;50.966;3.144;2023-07-20T01:42:11;9.40;;;6.87;;
17921;SDS011;9086;50.966;3.144;2023-07-20T01:44:37;8.03;;;6.20;;
17921;SDS011;9086;50.966;3.144;2023-07-20T01:47:03;7.95;;;6.43;;
17921;SDS011;9086;50.966;3.144;2023-07-20T01:49:29;8.77;;;6.53;;
17921;SDS011;9086;50.966;3.144;2023-07-20T01:51:55;8.63;;;6.90;;
17921;SDS011;9086;50.966;3.144;2023-07-20T01:54:21;7.70;;;6.80;;
17921;SDS011;9086;50.966;3.144;2023-07-20T01:56:47;6.83;;;6.07;;
17921;SDS011;9086;50.966;3.144;2023-07-20T01:59:13;8.70;;;6.13;;
17921;SDS011;9086;50.966;3.144;2023-07-20T02:01:39;7.53;;;5.87;;
17921;SDS011;9086;50.966;3.144;2023-07-20T02:04:05;11.37;;;6.47;;
17921;SDS011;9086;50.966;3.144;2023-07-20T02:06:31;8.87;;;6.17;;
17921;SDS011;9086;50.966;3.144;2023-07-20T02:08:57;6.80;;;5.87;;
17921;SDS011;9086;50.966;3.144;2023-07-20T02:11:24;6.90;;;6.10;;
17921;SDS011;9086;50.966;3.144;2023-07-20T02:13:50;8.97;;;6.40;;
17921;SDS011;9086;50.966;3.144;2023-07-20T02:16:16;6.70;;;5.97;;
17921;SDS011;9086;50.966;3.144;2023-07-20T02:18:41;8.70;;;6.73;;
17921;SDS011;9086;50.966;3.144;2023-07-20T02:21:07;7.50;;;6.80;;
17921;SDS011;9086;50.966;3.144;2023-07-20T02:23:33;7.13;;;6.27;;
17921;SDS011;9086;50.966;3.144;2023-07-20T02:25:59;7.77;;;6.97;;
17921;SDS011;9086;50.966;3.144;2023-07-20T02:28:26;8.60;;;6.73;;
17921;SDS011;9086;50.966;3.144;2023-07-20T02:30:52;9.30;;;7.23;;
17921;SDS011;9086;50.966;3.144;2023-07-20T02:33:18;7.77;;;6.23;;
17921;SDS011;9086;50.966;3.144;2023-07-20T02:35:45;10.17;;;6.93;;
17921;SDS011;9086;50.966;3.144;2023-07-20T02:38:11;7.67;;;6.53;;
17921;SDS011;9086;50.966;3.144;2023-07-20T02:40:37;8.63;;;6.93;;
17921;SDS011;9086;50.966;3.144;2023-07-20T02:43:03;9.17;;;7.17;;
17921;SDS011;9086;50.966;3.144;2023-07-20T02:45:29;7.60;;;6.70;;
17921;SDS011;9086;50.966;3.144;2023-07-20T02:47:55;7.80;;;6.53;;
17921;SDS011;9086;50.966;3.144;2023-07-20T02:50:21;7.30;;;6.27;;
17921;SDS011;9086;50.966;3.144;2023-07-20T02:52:47;7.13;;;6.47;;
17921;SDS011;9086;50.966;3.144;2023-07-20T02:55:14;7.63;;;6.60;;
17921;SDS011;9086;50.966;3.144;2023-07-20T02:57:40;7.10;;;6.40;;
17921;SDS011;9086;50.966;3.144;2023-07-20T03:00:06;6.93;;;6.23;;
17921;SDS011;9086;50.966;3.144;2023-07-20T03:02:33;8.03;;;6.20;;
17921;SDS011;9086;50.966;3.144;2023-07-20T03:04:59;9.50;;;6.43;;
17921;SDS011;9086;50.966;3.144;2023-07-20T03:07:26;7.03;;;6.33;;
17921;SDS011;9086;50.966;3.144;2023-07-20T03:09:53;9.53;;;6.93;;
17921;SDS011;9086;50.966;3.144;2023-07-20T03:12:20;6.77;;;6.07;;
17921;SDS011;9086;50.966;3.144;2023-07-20T03:14:46;9.23;;;6.30;;
17921;SDS011;9086;50.966;3.144;2023-07-20T03:17:12;6.97;;;6.23;;
17921;SDS011;9086;50.966;3.144;2023-07-20T03:19:38;8.17;;;6.70;;
17921;SDS011;9086;50.966;3.144;2023-07-20T03:22:04;6.53;;;5.93;;
17921;SDS011;9086;50.966;3.144;2023-07-20T03:24:30;6.87;;;6.23;;
17921;SDS011;9086;50.966;3.144;2023-07-20T03:26:56;9.30;;;6.77;;
17921;SDS011;9086;50.966;3.144;2023-07-20T03:29:22;9.40;;;6.80;;
17921;SDS011;9086;50.966;3.144;2023-07-20T03:31:48;7.50;;;6.67;;
17921;SDS011;9086;50.966;3.144;2023-07-20T03:34:15;7.03;;;6.33;;
17921;SDS011;9086;50.966;3.144;2023-07-20T03:36:41;8.93;;;6.80;;
17921;SDS011;9086;50.966;3.144;2023-07-20T03:39:07;8.60;;;6.50;;
17921;SDS011;9086;50.966;3.144;2023-07-20T03:41:33;11.00;;;7.20;;
17921;SDS011;9086;50.966;3.144;2023-07-20T03:44:00;7.43;;;6.73;;
17921;SDS011;9086;50.966;3.144;2023-07-20T03:46:26;7.77;;;7.17;;
17921;SDS011;9086;50.966;3.144;2023-07-20T03:48:52;7.60;;;6.90;;
17921;SDS011;9086;50.966;3.144;2023-07-20T03:51:18;7.60;;;6.90;;
17921;SDS011;9086;50.966;3.144;2023-07-20T03:53:44;8.70;;;7.50;;
17921;SDS011;9086;50.966;3.144;2023-07-20T03:56:10;7.77;;;7.07;;
17921;SDS011;9086;50.966;3.144;2023-07-20T03:58:36;7.73;;;6.70;;
17921;SDS011;9086;50.966;3.144;2023-07-20T04:01:02;7.27;;;6.67;;
17921;SDS011;9086;50.966;3.144;2023-07-20T04:03:28;6.93;;;5.97;;
17921;SDS011;9086;50.966;3.144;2023-07-20T04:05:54;7.43;;;6.63;;
17921;SDS011;9086;50.966;3.144;2023-07-20T04:08:22;7.00;;;6.17;;
17921;SDS011;9086;50.966;3.144;2023-07-20T04:10:49;7.60;;;6.93;;
17921;SDS011;9086;50.966;3.144;2023-07-20T04:13:15;6.57;;;5.87;;
17921;SDS011;9086;50.966;3.144;2023-07-20T04:15:41;7.90;;;7.20;;
17921;SDS011;9086;50.966;3.144;2023-07-20T04:18:07;8.43;;;7.57;;
17921;SDS011;9086;50.966;3.144;2023-07-20T04:20:34;7.87;;;7.17;;
17921;SDS011;9086;50.966;3.144;2023-07-20T04:23:00;9.33;;;6.57;;
17921;SDS011;9086;50.966;3.144;2023-07-20T04:25:26;8.30;;;7.60;;
17921;SDS011;9086;50.966;3.144;2023-07-20T04:27:52;7.50;;;6.90;;
17921;SDS011;9086;50.966;3.144;2023-07-20T04:30:18;8.83;;;7.40;;
17921;SDS011;9086;50.966;3.144;2023-07-20T04:32:45;7.77;;;6.80;;
17921;SDS011;9086;50.966;3.144;2023-07-20T04:35:15;7.50;;;6.80;;
17921;SDS011;9086;50.966;3.144;2023-07-20T04:37:42;9.70;;;8.70;;
17921;SDS011;9086;50.966;3.144;2023-07-20T04:40:11;9.93;;;8.73;;
17921;SDS011;9086;50.966;3.144;2023-07-20T04:42:37;9.77;;;8.20;;
17921;SDS011;9086;50.966;3.144;2023-07-20T04:45:04;8.60;;;7.80;;
17921;SDS011;9086;50.966;3.144;2023-07-20T04:47:30;9.53;;;8.67;;
17921;SDS011;9086;50.966;3.144;2023-07-20T04:49:56;8.30;;;7.60;;
17921;SDS011;9086;50.966;3.144;2023-07-20T04:52:22;8.40;;;7.50;;
17921;SDS011;9086;50.966;3.144;2023-07-20T04:54:48;7.97;;;7.27;;
17921;SDS011;9086;50.966;3.144;2023-07-20T04:57:14;7.47;;;6.87;;
17921;SDS011;9086;50.966;3.144;2023-07-20T04:59:40;8.80;;;7.67;;
17921;SDS011;9086;50.966;3.144;2023-07-20T05:02:06;9.23;;;8.33;;
17921;SDS011;9086;50.966;3.144;2023-07-20T05:04:32;8.50;;;7.63;;
17921;SDS011;9086;50.966;3.144;2023-07-20T05:06:58;9.83;;;7.90;;
17921;SDS011;9086;50.966;3.144;2023-07-20T05:09:24;8.37;;;7.67;;
17921;SDS011;9086;50.966;3.144;2023-07-20T05:11:50;8.53;;;7.73;;
17921;SDS011;9086;50.966;3.144;2023-07-20T05:14:16;8.33;;;7.47;;
17921;SDS011;9086;50.966;3.144;2023-07-20T05:16:42;9.67;;;7.77;;
17921;SDS011;9086;50.966;3.144;2023-07-20T05:19:08;8.43;;;7.63;;
17921;SDS011;9086;50.966;3.144;2023-07-20T05:21:34;11.50;;;8.00;;
17921;SDS011;9086;50.966;3.144;2023-07-20T05:24:00;9.20;;;7.97;;
17921;SDS011;9086;50.966;3.144;2023-07-20T05:26:26;9.40;;;8.50;;
17921;SDS011;9086;50.966;3.144;2023-07-20T05:28:52;10.60;;;8.87;;
17921;SDS011;9086;50.966;3.144;2023-07-20T05:31:18;11.40;;;9.17;;
17921;SDS011;9086;50.966;3.144;2023-07-20T05:33:44;9.23;;;8.43;;
17921;SDS011;9086;50.966;3.144;2023-07-20T05:36:10;9.70;;;8.70;;
17921;SDS011;9086;50.966;3.144;2023-07-20T05:38:36;9.73;;;8.83;;
17921;SDS011;9086;50.966;3.144;2023-07-20T05:41:02;10.37;;;8.17;;
17921;SDS011;9086;50.966;3.144;2023-07-20T05:43:28;9.33;;;8.43;;
17921;SDS011;9086;50.966;3.144;2023-07-20T05:45:55;9.33;;;8.23;;
17921;SDS011;9086;50.966;3.144;2023-07-20T05:48:21;8.90;;;8.17;;
17921;SDS011;9086;50.966;3.144;2023-07-20T05:50:47;8.90;;;8.10;;
17921;SDS011;9086;50.966;3.144;2023-07-20T05:53:13;8.37;;;7.73;;
17921;SDS011;9086;50.966;3.144;2023-07-20T05:55:39;9.57;;;8.67;;
17921;SDS011;9086;50.966;3.144;2023-07-20T05:58:05;9.50;;;8.50;;
17921;SDS011;9086;50.966;3.144;2023-07-20T06:00:31;10.50;;;7.33;;
17921;SDS011;9086;50.966;3.144;2023-07-20T06:02:57;8.80;;;8.00;;
17921;SDS011;9086;50.966;3.144;2023-07-20T06:05:23;8.43;;;7.03;;
17921;SDS011;9086;50.966;3.144;2023-07-20T06:07:50;8.13;;;7.28;;
17921;SDS011;9086;50.966;3.144;2023-07-20T06:10:16;9.27;;;6.83;;
17921;SDS011;9086;50.966;3.144;2023-07-20T06:12:42;11.47;;;6.40;;
17921;SDS011;9086;50.966;3.144;2023-07-20T06:15:23;8.53;;;7.67;;
17921;SDS011;9086;50.966;3.144;2023-07-20T06:17:50;6.87;;;6.20;;
17921;SDS011;9086;50.966;3.144;2023-07-20T06:20:16;7.43;;;6.73;;
17921;SDS011;9086;50.966;3.144;2023-07-20T06:22:44;5.20;;;4.70;;
17921;SDS011;9086;50.966;3.144;2023-07-20T06:25:10;6.90;;;5.20;;
17921;SDS011;9086;50.966;3.144;2023-07-20T06:27:36;5.68;;;5.22;;
17921;SDS011;9086;50.966;3.144;2023-07-20T06:30:02;3.93;;;3.63;;
17921;SDS011;9086;50.966;3.144;2023-07-20T06:32:28;3.50;;;3.20;;
17921;SDS011;9086;50.966;3.144;2023-07-20T06:34:54;3.90;;;3.30;;
17921;SDS011;9086;50.966;3.144;2023-07-20T06:37:20;2.83;;;2.63;;
17921;SDS011;9086;50.966;3.144;2023-07-20T06:39:46;3.07;;;1.30;;
17921;SDS011;9086;50.966;3.144;2023-07-20T06:42:12;4.03;;;2.40;;
17921;SDS011;9086;50.966;3.144;2023-07-20T06:44:39;2.50;;;2.30;;
17921;SDS011;9086;50.966;3.144;2023-07-20T06:47:05;3.22;;;2.10;;
17921;SDS011;9086;50.966;3.144;2023-07-20T06:49:31;2.75;;;2.22;;
17921;SDS011;9086;50.966;3.144;2023-07-20T06:51:57;2.72;;;2.53;;
17921;SDS011;9086;50.966;3.144;2023-07-20T06:54:23;2.83;;;2.63;;
17921;SDS011;9086;50.966;3.144;2023-07-20T06:56:49;2.33;;;2.13;;
17921;SDS011;9086;50.966;3.144;2023-07-20T06:59:15;2.70;;;2.47;;
17921;SDS011;9086;50.966;3.144;2023-07-20T07:01:41;2.20;;;2.10;;
17921;SDS011;9086;50.966;3.144;2023-07-20T07:04:08;2.30;;;2.20;;
17921;SDS011;9086;50.966;3.144;2023-07-20T07:06:35;3.45;;;3.15;;
17921;SDS011;9086;50.966;3.144;2023-07-20T07:09:02;3.90;;;2.70;;
17921;SDS011;9086;50.966;3.144;2023-07-20T07:11:28;2.60;;;2.40;;
17921;SDS011;9086;50.966;3.144;2023-07-20T07:13:54;3.22;;;2.92;;
17921;SDS011;9086;50.966;3.144;2023-07-20T07:16:20;3.38;;;3.08;;
17921;SDS011;9086;50.966;3.144;2023-07-20T07:18:46;2.92;;;2.70;;
17921;SDS011;9086;50.966;3.144;2023-07-20T07:21:13;5.00;;;3.28;;
17921;SDS011;9086;50.966;3.144;2023-07-20T07:23:39;3.60;;;3.08;;
17921;SDS011;9086;50.966;3.144;2023-07-20T07:26:05;3.72;;;3.28;;
17921;SDS011;9086;50.966;3.144;2023-07-20T07:28:31;3.78;;;3.45;;
17921;SDS011;9086;50.966;3.144;2023-07-20T07:30:57;3.33;;;3.03;;
17921;SDS011;9086;50.966;3.144;2023-07-20T07:33:23;3.15;;;2.95;;
17921;SDS011;9086;50.966;3.144;2023-07-20T07:35:50;5.03;;;2.83;;
17921;SDS011;9086;50.966;3.144;2023-07-20T07:38:17;3.20;;;2.90;;
17921;SDS011;9086;50.966;3.144;2023-07-20T07:40:44;4.28;;;2.92;;
17921;SDS011;9086;50.966;3.144;2023-07-20T07:43:10;3.38;;;3.08;;
17921;SDS011;9086;50.966;3.144;2023-07-20T07:45:36;5.60;;;3.20;;
17921;SDS011;9086;50.966;3.144;2023-07-20T07:48:03;3.42;;;3.15;;
17921;SDS011;9086;50.966;3.144;2023-07-20T07:50:29;3.28;;;3.08;;
17921;SDS011;9086;50.966;3.144;2023-07-20T07:52:55;3.70;;;3.38;;
17921;SDS011;9086;50.966;3.144;2023-07-20T07:55:21;2.70;;;2.50;;
17921;SDS011;9086;50.966;3.144;2023-07-20T07:57:47;2.92;;;2.70;;
17921;SDS011;9086;50.966;3.144;2023-07-20T08:00:13;3.13;;;2.90;;
17921;SDS011;9086;50.966;3.144;2023-07-20T08:02:42;3.08;;;2.75;;
17921;SDS011;9086;50.966;3.144;2023-07-20T08:05:09;4.05;;;3.38;;
17921;SDS011;9086;50.966;3.144;2023-07-20T08:07:35;3.28;;;2.97;;
17921;SDS011;9086;50.966;3.144;2023-07-20T08:10:02;3.15;;;2.85;;
17921;SDS011;9086;50.966;3.144;2023-07-20T08:12:28;2.97;;;2.70;;
17921;SDS011;9086;50.966;3.144;2023-07-20T08:14:54;2.97;;;2.78;;
17921;SDS011;9086;50.966;3.144;2023-07-20T08:17:20;2.97;;;2.58;;
17921;SDS011;9086;50.966;3.144;2023-07-20T08:19:46;2.58;;;2.38;;
17921;SDS011;9086;50.966;3.144;2023-07-20T08:22:12;4.15;;;2.97;;
17921;SDS011;9086;50.966;3.144;2023-07-20T08:24:41;2.67;;;2.47;;
17921;SDS011;9086;50.966;3.144;2023-07-20T08:27:08;2.63;;;2.42;;
17921;SDS011;9086;50.966;3.144;2023-07-20T08:29:35;3.83;;;2.25;;
17921;SDS011;9086;50.966;3.144;2023-07-20T08:32:01;2.50;;;2.30;;
17921;SDS011;9086;50.966;3.144;2023-07-20T08:34:27;2.50;;;2.30;;
17921;SDS011;9086;50.966;3.144;2023-07-20T08:36:53;2.70;;;2.33;;
17921;SDS011;9086;50.966;3.144;2023-07-20T08:39:19;4.57;;;2.80;;
17921;SDS011;9086;50.966;3.144;2023-07-20T08:41:47;2.45;;;2.25;;
17921;SDS011;9086;50.966;3.144;2023-07-20T08:44:14;3.03;;;2.78;;
17921;SDS011;9086;50.966;3.144;2023-07-20T08:46:40;3.03;;;2.83;;
17921;SDS011;9086;50.966;3.144;2023-07-20T08:49:07;3.08;;;2.88;;
17921;SDS011;9086;50.966;3.144;2023-07-20T08:51:33;3.33;;;3.10;;
17921;SDS011;9086;50.966;3.144;2023-07-20T08:53:59;3.22;;;2.92;;
17921;SDS011;9086;50.966;3.144;2023-07-20T08:56:26;2.95;;;2.63;;
17921;SDS011;9086;50.966;3.144;2023-07-20T08:58:55;4.05;;;2.90;;
17921;SDS011;9086;50.966;3.144;2023-07-20T09:01:21;3.30;;;3.00;;
17921;SDS011;9086;50.966;3.144;2023-07-20T09:03:47;4.45;;;3.30;;
17921;SDS011;9086;50.966;3.144;2023-07-20T09:06:13;3.97;;;3.60;;
17921;SDS011;9086;50.966;3.144;2023-07-20T09:08:40;3.80;;;3.50;;
17921;SDS011;9086;50.966;3.144;2023-07-20T09:11:06;4.75;;;3.65;;
17921;SDS011;9086;50.966;3.144;2023-07-20T09:13:33;4.63;;;3.78;;
17921;SDS011;9086;50.966;3.144;2023-07-20T09:15:59;4.03;;;3.67;;
17921;SDS011;9086;50.966;3.144;2023-07-20T09:18:27;4.32;;;3.38;;
17921;SDS011;9086;50.966;3.144;2023-07-20T09:20:53;3.80;;;3.47;;
17921;SDS011;9086;50.966;3.144;2023-07-20T09:23:19;4.50;;;4.03;;
17921;SDS011;9086;50.966;3.144;2023-07-20T09:25:48;6.45;;;4.20;;
17921;SDS011;9086;50.966;3.144;2023-07-20T09:28:16;4.43;;;4.03;;
17921;SDS011;9086;50.966;3.144;2023-07-20T09:30:42;4.25;;;3.95;;
17921;SDS011;9086;50.966;3.144;2023-07-20T09:33:12;3.55;;;3.25;;
17921;SDS011;9086;50.966;3.144;2023-07-20T09:35:43;4.10;;;3.70;;
17921;SDS011;9086;50.966;3.144;2023-07-20T09:38:09;4.72;;;4.30;;
17921;SDS011;9086;50.966;3.144;2023-07-20T09:40:39;4.43;;;4.05;;
17921;SDS011;9086;50.966;3.144;2023-07-20T09:43:07;4.47;;;3.85;;
17921;SDS011;9086;50.966;3.144;2023-07-20T09:45:34;4.78;;;4.13;;
17921;SDS011;9086;50.966;3.144;2023-07-20T09:48:04;4.47;;;4.07;;
17921;SDS011;9086;50.966;3.144;2023-07-20T09:50:31;4.28;;;3.92;;
17921;SDS011;9086;50.966;3.144;2023-07-20T09:52:57;3.95;;;3.60;;
17921;SDS011;9086;50.966;3.144;2023-07-20T09:55:25;4.50;;;3.97;;
17921;SDS011;9086;50.966;3.144;2023-07-20T09:57:52;4.05;;;3.67;;
17921;SDS011;9086;50.966;3.144;2023-07-20T10:00:18;4.53;;;4.20;;
17921;SDS011;9086;50.966;3.144;2023-07-20T10:02:45;4.38;;;3.95;;
17921;SDS011;9086;50.966;3.144;2023-07-20T10:05:12;3.97;;;3.67;;
17921;SDS011;9086;50.966;3.144;2023-07-20T10:07:49;5.10;;;4.60;;
17921;SDS011;9086;50.966;3.144;2023-07-20T10:10:15;3.75;;;3.42;;
17921;SDS011;9086;50.966;3.144;2023-07-20T10:12:42;3.70;;;3.40;;
17921;SDS011;9086;50.966;3.144;2023-07-20T10:15:13;4.57;;;3.70;;
17921;SDS011;9086;50.966;3.144;2023-07-20T10:17:49;5.45;;;4.95;;
17921;SDS011;9086;50.966;3.144;2023-07-20T10:20:19;4.93;;;4.43;;
17921;SDS011;9086;50.966;3.144;2023-07-20T10:22:46;4.85;;;4.30;;
17921;SDS011;9086;50.966;3.144;2023-07-20T10:25:13;5.00;;;4.50;;
17921;SDS011;9086;50.966;3.144;2023-07-20T10:27:40;5.15;;;4.65;;
17921;SDS011;9086;50.966;3.144;2023-07-20T10:30:06;6.10;;;4.78;;
17921;SDS011;9086;50.966;3.144;2023-07-20T10:32:32;5.70;;;5.20;;
17921;SDS011;9086;50.966;3.144;2023-07-20T10:34:59;6.10;;;4.55;;
17921;SDS011;9086;50.966;3.144;2023-07-20T10:42:51;5.20;;;4.80;;
17921;SDS011;9086;50.966;3.144;2023-07-20T10:45:21;5.57;;;5.18;;
17921;SDS011;9086;50.966;3.144;2023-07-20T10:47:47;6.32;;;5.80;;
17921;SDS011;9086;50.966;3.144;2023-07-20T10:50:13;5.45;;;4.95;;
17921;SDS011;9086;50.966;3.144;2023-07-20T10:52:42;7.03;;;6.43;;
17921;SDS011;9086;50.966;3.144;2023-07-20T10:55:15;5.28;;;4.88;;
17921;SDS011;9086;50.966;3.144;2023-07-20T10:57:41;5.35;;;4.95;;
17921;SDS011;9086;50.966;3.144;2023-07-20T11:00:11;6.13;;;5.07;;
17921;SDS011;9086;50.966;3.144;2023-07-20T11:02:44;6.70;;;6.05;;
17921;SDS011;9086;50.966;3.144;2023-07-20T11:07:55;7.28;;;6.03;;
17921;SDS011;9086;50.966;3.144;2023-07-20T11:10:21;4.78;;;4.38;;
17921;SDS011;9086;50.966;3.144;2023-07-20T11:15:48;6.82;;;6.22;;
17921;SDS011;9086;50.966;3.144;2023-07-20T11:18:14;6.70;;;6.10;;
17921;SDS011;9086;50.966;3.144;2023-07-20T11:20:40;6.57;;;6.10;;
17921;SDS011;9086;50.966;3.144;2023-07-20T11:23:07;5.53;;;5.03;;
17921;SDS011;9086;50.966;3.144;2023-07-20T11:25:39;5.25;;;4.75;;
17921;SDS011;9086;50.966;3.144;2023-07-20T11:28:09;6.13;;;5.53;;
17921;SDS011;9086;50.966;3.144;2023-07-20T11:30:38;6.22;;;5.57;;
17921;SDS011;9086;50.966;3.144;2023-07-20T11:33:04;4.72;;;4.30;;
17921;SDS011;9086;50.966;3.144;2023-07-20T11:35:31;4.50;;;4.20;;
17921;SDS011;9086;50.966;3.144;2023-07-20T11:38:00;3.67;;;3.47;;
17921;SDS011;9086;50.966;3.144;2023-07-20T11:40:26;5.88;;;5.38;;
17921;SDS011;9086;50.966;3.144;2023-07-20T11:42:52;5.18;;;4.78;;
17921;SDS011;9086;50.966;3.144;2023-07-20T11:45:19;5.85;;;5.35;;
17921;SDS011;9086;50.966;3.144;2023-07-20T11:47:45;6.38;;;5.93;;
17921;SDS011;9086;50.966;3.144;2023-07-20T11:50:11;5.03;;;4.63;;
17921;SDS011;9086;50.966;3.144;2023-07-20T11:52:39;6.20;;;5.72;;
17921;SDS011;9086;50.966;3.144;2023-07-20T11:55:05;6.50;;;6.10;;
17921;SDS011;9086;50.966;3.144;2023-07-20T11:57:31;7.68;;;6.45;;
17921;SDS011;9086;50.966;3.144;2023-07-20T11:59:58;6.43;;;5.80;;
17921;SDS011;9086;50.966;3.144;2023-07-20T12:02:27;6.35;;;5.75;;
17921;SDS011;9086;50.966;3.144;2023-07-20T12:04:56;6.15;;;5.65;;
17921;SDS011;9086;50.966;3.144;2023-07-20T12:07:23;6.45;;;5.78;;
17921;SDS011;9086;50.966;3.144;2023-07-20T12:10:02;5.30;;;4.88;;
17921;SDS011;9086;50.966;3.144;2023-07-20T12:12:30;5.38;;;4.97;;
17921;SDS011;9086;50.966;3.144;2023-07-20T12:15:11;5.60;;;5.10;;
17921;SDS011;9086;50.966;3.144;2023-07-20T12:17:41;5.80;;;5.40;;
17921;SDS011;9086;50.966;3.144;2023-07-20T12:20:07;5.07;;;4.78;;
17921;SDS011;9086;50.966;3.144;2023-07-20T12:22:38;5.78;;;5.28;;
17921;SDS011;9086;50.966;3.144;2023-07-20T12:25:07;5.53;;;5.03;;
17921;SDS011;9086;50.966;3.144;2023-07-20T12:27:37;5.05;;;4.55;;
17921;SDS011;9086;50.966;3.144;2023-07-20T12:30:04;4.10;;;3.80;;
17921;SDS011;9086;50.966;3.144;2023-07-20T12:32:30;5.15;;;3.78;;
17921;SDS011;9086;50.966;3.144;2023-07-20T12:34:56;4.20;;;3.88;;
17921;SDS011;9086;50.966;3.144;2023-07-20T12:37:22;5.00;;;4.60;;
17921;SDS011;9086;50.966;3.144;2023-07-20T12:39:48;6.05;;;5.55;;
17921;SDS011;9086;50.966;3.144;2023-07-20T12:42:14;6.75;;;6.00;;
17921;SDS011;9086;50.966;3.144;2023-07-20T12:44:41;7.45;;;6.75;;
17921;SDS011;9086;50.966;3.144;2023-07-20T12:47:07;8.93;;;7.60;;
17921;SDS011;9086;50.966;3.144;2023-07-20T12:49:33;8.07;;;6.93;;
17921;SDS011;9086;50.966;3.144;2023-07-20T12:51:59;9.50;;;7.15;;
17921;SDS011;9086;50.966;3.144;2023-07-20T12:54:25;9.00;;;8.15;;
17921;SDS011;9086;50.966;3.144;2023-07-20T12:56:51;9.50;;;8.35;;
17921;SDS011;9086;50.966;3.144;2023-07-20T12:59:17;9.77;;;8.40;;
17921;SDS011;9086;50.966;3.144;2023-07-20T13:01:44;9.23;;;8.43;;
17921;SDS011;9086;50.966;3.144;2023-07-20T13:04:10;9.00;;;8.15;;
17921;SDS011;9086;50.966;3.144;2023-07-20T13:06:36;10.57;;;9.10;;
17921;SDS011;9086;50.966;3.144;2023-07-20T13:09:02;8.68;;;7.85;;
17921;SDS011;9086;50.966;3.144;2023-07-20T13:11:29;9.38;;;8.52;;
17921;SDS011;9086;50.966;3.144;2023-07-20T13:13:55;9.88;;;8.90;;
17921;SDS011;9086;50.966;3.144;2023-07-20T13:16:21;8.32;;;7.63;;
17921;SDS011;9086;50.966;3.144;2023-07-20T13:18:47;9.32;;;8.50;;
17921;SDS011;9086;50.966;3.144;2023-07-20T13:21:13;9.35;;;8.35;;
17921;SDS011;9086;50.966;3.144;2023-07-20T13:23:39;9.57;;;8.65;;
17921;SDS011;9086;50.966;3.144;2023-07-20T13:26:05;10.30;;;9.43;;
17921;SDS011;9086;50.966;3.144;2023-07-20T13:28:33;10.18;;;9.38;;
17921;SDS011;9086;50.966;3.144;2023-07-20T13:30:59;9.93;;;9.10;;
17921;SDS011;9086;50.966;3.144;2023-07-20T13:33:25;10.27;;;9.25;;
17921;SDS011;9086;50.966;3.144;2023-07-20T13:35:51;9.45;;;8.65;;
17921;SDS011;9086;50.966;3.144;2023-07-20T13:38:17;9.52;;;8.82;;
17921;SDS011;9086;50.966;3.144;2023-07-20T13:40:43;9.77;;;8.95;;
17921;SDS011;9086;50.966;3.144;2023-07-20T13:43:09;10.55;;;9.65;;
17921;SDS011;9086;50.966;3.144;2023-07-20T13:45:36;12.00;;;9.95;;
17921;SDS011;9086;50.966;3.144;2023-07-20T13:48:01;10.98;;;9.98;;
17921;SDS011;9086;50.966;3.144;2023-07-20T13:50:27;11.13;;;10.23;;
17921;SDS011;9086;50.966;3.144;2023-07-20T13:52:53;10.60;;;9.68;;
17921;SDS011;9086;50.966;3.144;2023-07-20T13:55:19;11.98;;;11.02;;
17921;SDS011;9086;50.966;3.144;2023-07-20T13:57:46;10.88;;;10.00;;
17921;SDS011;9086;50.966;3.144;2023-07-20T14:00:12;11.27;;;10.25;;
17921;SDS011;9086;50.966;3.144;2023-07-20T14:02:39;10.60;;;9.70;;
17921;SDS011;9086;50.966;3.144;2023-07-20T14:05:05;12.13;;;11.02;;
17921;SDS011;9086;50.966;3.144;2023-07-20T14:07:31;11.80;;;10.90;;
17921;SDS011;9086;50.966;3.144;2023-07-20T14:09:57;12.43;;;11.50;;
17921;SDS011;9086;50.966;3.144;2023-07-20T14:12:24;12.80;;;11.80;;
17921;SDS011;9086;50.966;3.144;2023-07-20T14:14:50;11.38;;;10.48;;
17921;SDS011;9086;50.966;3.144;2023-07-20T14:17:16;12.60;;;11.60;;
17921;SDS011;9086;50.966;3.144;2023-07-20T14:19:42;12.47;;;11.47;;
17921;SDS011;9086;50.966;3.144;2023-07-20T14:22:08;13.80;;;12.70;;
17921;SDS011;9086;50.966;3.144;2023-07-20T14:24:34;15.57;;;14.07;;
17921;SDS011;9086;50.966;3.144;2023-07-20T14:27:00;12.35;;;11.35;;
17921;SDS011;9086;50.966;3.144;2023-07-20T14:29:27;12.20;;;11.20;;
17921;SDS011;9086;50.966;3.144;2023-07-20T14:31:56;10.23;;;9.43;;
17921;SDS011;9086;50.966;3.144;2023-07-20T14:34:22;11.40;;;10.37;;
17921;SDS011;9086;50.966;3.144;2023-07-20T14:36:48;12.43;;;11.33;;
17921;SDS011;9086;50.966;3.144;2023-07-20T14:39:15;11.55;;;10.70;;
17921;SDS011;9086;50.966;3.144;2023-07-20T14:41:41;11.25;;;10.45;;
17921;SDS011;9086;50.966;3.144;2023-07-20T14:44:07;9.77;;;9.07;;
17921;SDS011;9086;50.966;3.144;2023-07-20T14:46:35;10.30;;;9.60;;
17921;SDS011;9086;50.966;3.144;2023-07-20T14:49:01;11.10;;;10.20;;
17921;SDS011;9086;50.966;3.144;2023-07-20T14:51:27;9.93;;;9.13;;
17921;SDS011;9086;50.966;3.144;2023-07-20T14:53:58;9.60;;;8.90;;
17921;SDS011;9086;50.966;3.144;2023-07-20T14:56:25;10.10;;;9.20;;
17921;SDS011;9086;50.966;3.144;2023-07-20T14:58:51;10.02;;;9.30;;
17921;SDS011;9086;50.966;3.144;2023-07-20T15:01:17;9.70;;;8.93;;
17921;SDS011;9086;50.966;3.144;2023-07-20T15:03:43;7.80;;;7.15;;
17921;SDS011;9086;50.966;3.144;2023-07-20T15:06:12;8.10;;;7.50;;
17921;SDS011;9086;50.966;3.144;2023-07-20T15:08:38;7.30;;;6.80;;
17921;SDS011;9086;50.966;3.144;2023-07-20T15:11:04;7.85;;;7.15;;
17921;SDS011;9086;50.966;3.144;2023-07-20T15:13:30;6.22;;;5.72;;
17921;SDS011;9086;50.966;3.144;2023-07-20T15:15:56;6.43;;;5.82;;
17921;SDS011;9086;50.966;3.144;2023-07-20T15:18:22;4.05;;;3.75;;